Time;durP1;ratioP1;P1;durP2;ratioP2;P2;SDS_P1;SDS_P2;PMS_P1;PMS_P2;Temp;Humidity;BMP_temperature;BMP_pressure;BME280_temperature;BME280_humidity;BME280_pressure;Samples;Min_cycle;Max_cycle;Signal;HPM_P1;HPM_P2
2024/02/16 00:00:27;;;;;;;83.60;36.38;;;;;;;;;;6103491;23;20087;-95
2024/02/16 00:02:54;;;;;;;84.07;37.60;;;;;;;;;;6104041;23;20025;-95
2024/02/16 00:05:20;;;;;;;62.15;33.30;;;;;;;;;;6102850;23;20009;-95
2024/02/16 00:07:46;;;;;;;85.55;37.58;;;;;;;;;;6103080;23;20085;-96
2024/02/16 00:10:13;;;;;;;83.95;38.88;;;;;;;;;;6102943;23;20339;-96
2024/02/16 00:12:40;;;;;;;104.70;45.47;;;;;;;;;;6103691;23;20002;-96
2024/02/16 00:15:10;;;;;;;78.70;36.15;;;;;;;;;;6103587;23;20026;-95
2024/02/16 00:17:37;;;;;;;91.57;37.42;;;;;;;;;;6104118;23;20002;-95
2024/02/16 00:20:03;;;;;;;89.57;36.22;;;;;;;;;;6103577;23;20010;-95
2024/02/16 00:22:29;;;;;;;81.78;36.47;;;;;;;;;;6103201;23;20057;-93
2024/02/16 00:24:55;;;;;;;104.35;40.00;;;;;;;;;;6103267;23;20018;-96
2024/02/16 00:27:22;;;;;;;75.63;37.65;;;;;;;;;;6102964;23;20002;-96
2024/02/16 00:29:48;;;;;;;99.35;41.15;;;;;;;;;;6103217;23;20065;-96
2024/02/16 00:32:17;;;;;;;73.82;36.60;;;;;;;;;;6103011;23;19998;-96
2024/02/16 00:34:43;;;;;;;86.55;40.80;;;;;;;;;;6102931;23;20048;-96
2024/02/16 00:37:11;;;;;;;85.20;35.80;;;;;;;;;;6103264;23;20158;-96
2024/02/16 00:39:40;;;;;;;96.80;38.97;;;;;;;;;;6103391;23;20092;-96
2024/02/16 00:42:06;;;;;;;104.28;39.90;;;;;;;;;;6103305;23;20006;-96
2024/02/16 00:44:32;;;;;;;102.95;40.00;;;;;;;;;;6123957;23;20054;-96
2024/02/16 00:46:58;;;;;;;92.15;37.20;;;;;;;;;;6129085;23;19986;-96
2024/02/16 00:49:25;;;;;;;92.75;38.83;;;;;;;;;;6104861;23;20061;-96
2024/02/16 00:51:51;;;;;;;94.32;37.92;;;;;;;;;;6103959;23;20007;-96
2024/02/16 00:54:17;;;;;;;56.60;30.30;;;;;;;;;;6102940;23;20085;-96
2024/02/16 00:56:47;;;;;;;102.30;41.22;;;;;;;;;;6129285;23;20420;-96
2024/02/16 00:59:13;;;;;;;93.72;38.25;;;;;;;;;;6103282;23;20093;-96
2024/02/16 01:01:39;;;;;;;101.20;39.10;;;;;;;;;;6103148;23;20013;-95
2024/02/16 01:04:06;;;;;;;101.70;38.67;;;;;;;;;;6103271;23;20002;-96
2024/02/16 01:06:33;;;;;;;94.90;38.75;;;;;;;;;;6103623;23;20010;-96
2024/02/16 01:08:59;;;;;;;87.15;38.38;;;;;;;;;;6103671;23;20005;-96
2024/02/16 01:11:25;;;;;;;83.65;35.13;;;;;;;;;;6103371;23;20013;-96
2024/02/16 01:13:51;;;;;;;54.13;27.98;;;;;;;;;;6104227;23;20026;-96
2024/02/16 01:16:17;;;;;;;96.57;39.35;;;;;;;;;;6103690;23;20013;-96
2024/02/16 01:18:44;;;;;;;72.47;33.55;;;;;;;;;;6103213;23;20450;-95
2024/02/16 01:21:11;;;;;;;101.07;40.22;;;;;;;;;;6103192;23;20443;-96
2024/02/16 01:23:37;;;;;;;91.68;37.45;;;;;;;;;;6103206;23;20033;-96
2024/02/16 01:26:03;;;;;;;85.93;37.88;;;;;;;;;;6103764;23;20080;-96
2024/02/16 01:28:29;;;;;;;132.68;42.50;;;;;;;;;;6104243;23;20017;-96
2024/02/16 01:30:58;;;;;;;57.92;30.33;;;;;;;;;;6104414;23;20065;-95
2024/02/16 01:33:24;;;;;;;93.65;38.00;;;;;;;;;;6104246;23;20096;-96
2024/02/16 01:35:50;;;;;;;59.40;30.40;;;;;;;;;;6103976;23;20028;-95
2024/02/16 01:38:17;;;;;;;111.20;41.75;;;;;;;;;;6103643;23;20006;-96
2024/02/16 01:40:43;;;;;;;86.50;38.45;;;;;;;;;;6129515;23;20045;-96
2024/02/16 01:43:10;;;;;;;101.28;39.85;;;;;;;;;;6079016;23;20014;-95
2024/02/16 01:45:36;;;;;;;98.97;38.65;;;;;;;;;;6102234;23;20491;-96
2024/02/16 01:48:02;;;;;;;73.55;36.33;;;;;;;;;;6102574;23;20008;-96
2024/02/16 01:50:29;;;;;;;82.93;36.72;;;;;;;;;;6103315;23;20006;-94
2024/02/16 01:52:55;;;;;;;108.35;39.60;;;;;;;;;;6103447;23;20555;-96
2024/02/16 01:55:22;;;;;;;129.15;43.33;;;;;;;;;;6103143;23;20436;-95
2024/02/16 01:57:49;;;;;;;90.57;36.95;;;;;;;;;;6102778;23;20062;-96
2024/02/16 02:00:17;;;;;;;85.05;36.90;;;;;;;;;;6103554;23;20006;-96
2024/02/16 02:03:10;;;;;;;80.53;36.50;;;;;;;;;;6107788;23;20052;-96
2024/02/16 02:08:57;;;;;;;98.80;38.03;;;;;;;;;;6029733;23;20028;-96
2024/02/16 02:21:24;;;;;;;99.43;36.30;;;;;;;;;;6005247;24;20011;-96
2024/02/16 02:26:47;;;;;;;99.72;39.67;;;;;;;;;;5881410;24;20021;-96
2024/02/16 02:29:15;;;;;;;106.57;39.78;;;;;;;;;;6049211;23;20513;-96
2024/02/16 02:32:01;;;;;;;110.10;41.55;;;;;;;;;;6019740;23;20007;-96
2024/02/16 02:34:38;;;;;;;109.88;41.20;;;;;;;;;;6043550;23;20379;-96
2024/02/16 02:37:08;;;;;;;68.80;33.28;;;;;;;;;;6043691;23;20019;-96
2024/02/16 02:39:36;;;;;;;76.32;35.22;;;;;;;;;;6020048;23;20595;-96
2024/02/16 02:42:06;;;;;;;118.63;43.20;;;;;;;;;;6043147;23;20078;-96
2024/02/16 02:44:33;;;;;;;97.10;39.65;;;;;;;;;;6050611;23;20002;-96
2024/02/16 02:46:59;;;;;;;115.05;42.13;;;;;;;;;;6107830;23;20002;-96
2024/02/16 02:49:26;;;;;;;105.18;40.75;;;;;;;;;;6109040;23;20082;-96
2024/02/16 02:51:53;;;;;;;87.20;36.53;;;;;;;;;;6108246;23;20049;-96
2024/02/16 02:54:19;;;;;;;81.13;36.47;;;;;;;;;;6106248;23;20014;-96
2024/02/16 02:56:45;;;;;;;97.22;39.40;;;;;;;;;;6105037;23;20029;-95
2024/02/16 02:59:12;;;;;;;65.57;34.20;;;;;;;;;;6104939;23;20095;-96
2024/02/16 03:01:38;;;;;;;121.93;41.70;;;;;;;;;;6081273;23;20002;-96
2024/02/16 03:04:05;;;;;;;85.18;38.20;;;;;;;;;;6105242;23;20444;-96
2024/02/16 03:06:31;;;;;;;95.95;38.90;;;;;;;;;;6105587;23;20689;-96
2024/02/16 03:08:57;;;;;;;105.25;41.95;;;;;;;;;;6105529;23;20002;-96
2024/02/16 03:11:23;;;;;;;95.15;38.78;;;;;;;;;;6105553;23;20065;-96
2024/02/16 03:13:49;;;;;;;94.47;37.60;;;;;;;;;;6105643;23;20037;-96
2024/02/16 03:16:15;;;;;;;99.85;39.38;;;;;;;;;;6106255;23;20050;-96
2024/02/16 03:18:42;;;;;;;109.55;38.55;;;;;;;;;;6081471;23;20006;-96
2024/02/16 03:21:08;;;;;;;88.47;36.25;;;;;;;;;;6105768;23;20006;-95
2024/02/16 03:23:34;;;;;;;78.85;34.70;;;;;;;;;;6105626;23;20508;-96
2024/02/16 03:26:00;;;;;;;77.47;35.13;;;;;;;;;;6105090;23;20460;-96
2024/02/16 03:28:26;;;;;;;73.30;32.75;;;;;;;;;;6080851;23;20013;-96
2024/02/16 03:30:53;;;;;;;73.90;32.70;;;;;;;;;;6104489;23;20006;-96
2024/02/16 03:33:21;;;;;;;91.07;36.70;;;;;;;;;;6104686;23;20009;-96
2024/02/16 03:35:48;;;;;;;103.00;39.45;;;;;;;;;;6103652;23;20048;-96
2024/02/16 03:38:14;;;;;;;91.82;37.17;;;;;;;;;;6104020;23;20439;-95
2024/02/16 03:40:41;;;;;;;59.50;31.80;;;;;;;;;;6104497;23;20451;-96
2024/02/16 03:43:07;;;;;;;96.15;37.40;;;;;;;;;;6104452;23;20428;-95
2024/02/16 03:45:33;;;;;;;67.05;32.65;;;;;;;;;;6104345;23;20474;-96
2024/02/16 03:47:59;;;;;;;83.88;34.85;;;;;;;;;;6104805;23;20029;-96
2024/02/16 03:50:25;;;;;;;69.95;33.17;;;;;;;;;;6102373;23;20085;-95
2024/02/16 03:52:51;;;;;;;76.70;35.00;;;;;;;;;;6103993;23;20030;-96
2024/02/16 03:55:17;;;;;;;96.30;38.00;;;;;;;;;;6103611;23;20440;-95
2024/02/16 03:57:44;;;;;;;80.53;35.67;;;;;;;;;;6103423;23;20367;-95
2024/02/16 04:00:12;;;;;;;79.78;36.33;;;;;;;;;;6103292;23;20009;-96
2024/02/16 04:02:38;;;;;;;76.50;34.28;;;;;;;;;;6104051;23;20010;-96
2024/02/16 04:05:07;;;;;;;106.28;38.05;;;;;;;;;;6104024;23;20014;-96
2024/02/16 04:07:33;;;;;;;68.43;32.88;;;;;;;;;;6123998;23;19990;-93
2024/02/16 04:10:00;;;;;;;64.10;32.42;;;;;;;;;;6129123;23;20010;-96
2024/02/16 04:12:26;;;;;;;87.03;35.50;;;;;;;;;;6103902;23;20089;-95
2024/02/16 04:14:52;;;;;;;81.38;35.05;;;;;;;;;;6102174;23;20010;-96
2024/02/16 04:17:18;;;;;;;76.72;35.40;;;;;;;;;;6103275;23;20082;-96
2024/02/16 04:19:44;;;;;;;87.78;35.67;;;;;;;;;;6103284;23;20009;-96
2024/02/16 04:22:11;;;;;;;86.35;36.88;;;;;;;;;;6104884;23;20017;-96
2024/02/16 04:24:37;;;;;;;81.53;35.88;;;;;;;;;;6103446;23;20013;-95
2024/02/16 04:27:03;;;;;;;92.30;36.85;;;;;;;;;;6102203;23;20061;-94
2024/02/16 04:29:29;;;;;;;83.50;35.08;;;;;;;;;;6102079;23;20428;-95
2024/02/16 04:31:55;;;;;;;81.70;35.85;;;;;;;;;;6105426;23;20006;-94
2024/02/16 04:34:21;;;;;;;91.15;37.75;;;;;;;;;;6103768;23;20057;-96
2024/02/16 04:36:47;;;;;;;87.70;36.95;;;;;;;;;;6104650;23;20013;-96
2024/02/16 04:39:14;;;;;;;81.13;35.60;;;;;;;;;;6103064;23;20006;-96
2024/02/16 04:41:41;;;;;;;54.72;30.20;;;;;;;;;;6103313;23;20014;-96
2024/02/16 04:44:07;;;;;;;70.47;31.88;;;;;;;;;;6102636;23;20041;-95
2024/02/16 04:46:33;;;;;;;81.22;35.72;;;;;;;;;;6103910;23;20009;-94
2024/02/16 04:48:59;;;;;;;80.68;35.63;;;;;;;;;;6102122;23;20141;-94
2024/02/16 04:51:25;;;;;;;73.18;35.05;;;;;;;;;;6102822;23;20061;-95
2024/02/16 04:53:52;;;;;;;90.80;36.90;;;;;;;;;;6102826;23;20006;-95
2024/02/16 04:56:18;;;;;;;87.63;36.50;;;;;;;;;;6105914;23;20428;-96
2024/02/16 04:58:44;;;;;;;88.78;38.10;;;;;;;;;;6104851;23;20006;-95
2024/02/16 05:01:10;;;;;;;74.45;35.55;;;;;;;;;;6103647;23;20062;-95
2024/02/16 05:03:37;;;;;;;89.43;38.15;;;;;;;;;;6104451;23;20332;-96
2024/02/16 05:06:03;;;;;;;58.45;31.23;;;;;;;;;;6103033;23;20408;-96
2024/02/16 05:08:30;;;;;;;104.07;39.60;;;;;;;;;;6129171;23;20010;-95
2024/02/16 05:10:56;;;;;;;67.15;32.83;;;;;;;;;;6102508;23;20013;-96
2024/02/16 05:13:24;;;;;;;85.50;35.95;;;;;;;;;;6104117;23;20009;-95
2024/02/16 05:15:50;;;;;;;99.03;36.92;;;;;;;;;;6080582;23;20026;-95
2024/02/16 05:18:17;;;;;;;71.47;32.70;;;;;;;;;;6105149;23;20008;-95
2024/02/16 05:20:43;;;;;;;67.00;31.77;;;;;;;;;;6102356;23;20009;-92
2024/02/16 05:23:10;;;;;;;74.70;33.90;;;;;;;;;;6101661;23;20006;-92
2024/02/16 05:25:36;;;;;;;72.38;34.28;;;;;;;;;;6101878;23;20420;-92
2024/02/16 05:28:02;;;;;;;91.45;37.88;;;;;;;;;;6102727;23;20149;-92
2024/02/16 05:30:28;;;;;;;93.10;39.25;;;;;;;;;;6102199;23;20061;-93
2024/02/16 05:32:58;;;;;;;118.43;42.75;;;;;;;;;;6101929;23;20087;-93
2024/02/16 05:35:27;;;;;;;112.63;41.38;;;;;;;;;;6101963;23;20014;-92
2024/02/16 05:37:55;;;;;;;111.90;41.08;;;;;;;;;;6102576;23;20080;-93
2024/02/16 05:40:28;;;;;;;80.20;34.67;;;;;;;;;;6102511;23;20010;-93
2024/02/16 05:42:58;;;;;;;88.47;38.10;;;;;;;;;;6102306;23;20013;-92
2024/02/16 05:45:26;;;;;;;94.82;39.05;;;;;;;;;;6102554;23;20010;-94
2024/02/16 05:47:52;;;;;;;89.68;37.55;;;;;;;;;;6108965;23;20014;-92
2024/02/16 05:50:20;;;;;;;67.50;32.65;;;;;;;;;;6128588;23;20001;-93
2024/02/16 05:52:46;;;;;;;78.13;35.67;;;;;;;;;;6119207;23;20013;-93
2024/02/16 05:55:13;;;;;;;100.00;40.33;;;;;;;;;;6103261;23;20013;-92
2024/02/16 05:57:39;;;;;;;118.35;40.33;;;;;;;;;;6103215;23;20005;-94
2024/02/16 06:00:06;;;;;;;104.57;39.95;;;;;;;;;;6103853;23;20081;-95
2024/02/16 06:02:34;;;;;;;87.45;37.03;;;;;;;;;;6129836;23;20077;-91
2024/02/16 06:05:00;;;;;;;103.32;39.15;;;;;;;;;;6104032;23;20432;-91
2024/02/16 06:07:27;;;;;;;109.68;40.78;;;;;;;;;;6104036;23;20010;-93
2024/02/16 06:09:54;;;;;;;85.97;38.33;;;;;;;;;;6103691;23;20313;-93
2024/02/16 06:12:20;;;;;;;125.85;41.83;;;;;;;;;;6103159;23;20029;-93
2024/02/16 06:14:48;;;;;;;103.25;39.38;;;;;;;;;;6103532;23;20025;-94
2024/02/16 06:17:14;;;;;;;108.13;40.38;;;;;;;;;;6104742;23;20500;-93
2024/02/16 06:19:43;;;;;;;113.63;42.63;;;;;;;;;;6104866;23;20010;-96
2024/02/16 06:22:10;;;;;;;138.50;47.30;;;;;;;;;;6110175;23;20006;-96
2024/02/16 06:24:36;;;;;;;145.15;49.55;;;;;;;;;;6083368;23;20014;-95
2024/02/16 06:27:03;;;;;;;141.57;49.00;;;;;;;;;;6104546;23;20006;-94
2024/02/16 06:29:49;;;;;;;185.13;57.63;;;;;;;;;;6109184;23;20097;-96
2024/02/16 06:32:16;;;;;;;283.98;67.57;;;;;;;;;;6106064;23;20006;-96
2024/02/16 06:34:45;;;;;;;219.77;58.25;;;;;;;;;;6104521;23;20022;-96
2024/02/16 06:37:11;;;;;;;162.57;46.08;;;;;;;;;;6104725;23;20013;-95
2024/02/16 06:39:37;;;;;;;65.63;34.35;;;;;;;;;;6104297;23;20010;-92
2024/02/16 06:42:03;;;;;;;84.75;37.08;;;;;;;;;;6102941;23;20060;-94
2024/02/16 06:44:30;;;;;;;162.55;40.55;;;;;;;;;;6103147;23;20002;-95
2024/02/16 06:46:56;;;;;;;97.72;34.97;;;;;;;;;;6103650;23;20041;-96
2024/02/16 06:49:22;;;;;;;53.95;28.67;;;;;;;;;;6103930;23;20014;-93
2024/02/16 06:51:48;;;;;;;51.08;27.25;;;;;;;;;;6104794;23;20065;-96
2024/02/16 06:54:14;;;;;;;73.60;26.35;;;;;;;;;;6104119;23;20009;-96
2024/02/16 06:56:40;;;;;;;45.65;25.52;;;;;;;;;;6105197;23;20024;-96
2024/02/16 06:59:06;;;;;;;37.35;24.13;;;;;;;;;;6105274;23;20006;-96
2024/02/16 07:01:33;;;;;;;43.42;24.55;;;;;;;;;;6131829;23;20412;-96
2024/02/16 07:04:01;;;;;;;35.40;24.05;;;;;;;;;;6103432;23;20009;-95
2024/02/16 07:06:27;;;;;;;41.58;24.15;;;;;;;;;;6102010;23;20451;-92
2024/02/16 07:08:54;;;;;;;35.08;22.80;;;;;;;;;;6103100;23;20010;-92
2024/02/16 07:11:20;;;;;;;37.55;25.40;;;;;;;;;;6102631;23;20006;-90
2024/02/16 07:13:47;;;;;;;33.30;24.58;;;;;;;;;;6103097;23;20013;-93
2024/02/16 07:16:13;;;;;;;53.78;26.45;;;;;;;;;;6102908;23;20034;-93
2024/02/16 07:18:39;;;;;;;35.17;24.52;;;;;;;;;;6102456;23;20445;-91
2024/02/16 07:21:05;;;;;;;32.70;24.38;;;;;;;;;;6103022;23;20010;-92
2024/02/16 07:23:31;;;;;;;35.50;26.13;;;;;;;;;;6104139;23;20012;-92
2024/02/16 07:25:58;;;;;;;34.47;28.10;;;;;;;;;;6103139;23;20006;-94
2024/02/16 07:28:24;;;;;;;32.60;27.05;;;;;;;;;;6103276;23;20038;-94
2024/02/16 07:30:51;;;;;;;33.85;26.95;;;;;;;;;;6121337;23;19997;-93
2024/02/16 07:33:17;;;;;;;30.75;25.17;;;;;;;;;;6129991;23;20053;-92
2024/02/16 07:35:44;;;;;;;35.50;26.10;;;;;;;;;;6108440;23;20018;-92
2024/02/16 07:38:10;;;;;;;29.55;24.55;;;;;;;;;;6102227;23;20033;-93
2024/02/16 07:40:54;;;;;;;29.20;24.70;;;;;;;;;;6103267;23;20012;-91
2024/02/16 07:43:23;;;;;;;27.85;24.83;;;;;;;;;;6102110;23;20089;-90
2024/02/16 07:45:50;;;;;;;29.30;25.50;;;;;;;;;;6102576;23;20002;-90
2024/02/16 07:48:16;;;;;;;26.00;23.27;;;;;;;;;;6102435;23;20009;-89
2024/02/16 07:50:42;;;;;;;28.70;24.45;;;;;;;;;;6101960;23;20002;-89
2024/02/16 07:53:11;;;;;;;31.88;25.80;;;;;;;;;;6102339;23;20029;-89
2024/02/16 07:55:37;;;;;;;29.58;24.05;;;;;;;;;;6102333;23;20025;-90
2024/02/16 07:58:03;;;;;;;28.63;25.55;;;;;;;;;;6101862;23;20002;-89
2024/02/16 08:00:29;;;;;;;28.55;25.55;;;;;;;;;;6101850;23;20006;-89
2024/02/16 08:02:55;;;;;;;29.50;25.75;;;;;;;;;;6101981;23;20057;-90
2024/02/16 08:05:22;;;;;;;26.88;23.20;;;;;;;;;;6102158;23;20005;-90
2024/02/16 08:07:48;;;;;;;30.42;24.20;;;;;;;;;;6102617;23;20428;-91
2024/02/16 08:10:14;;;;;;;24.92;22.40;;;;;;;;;;6101587;23;20025;-91
2024/02/16 08:12:41;;;;;;;23.02;20.58;;;;;;;;;;6102067;23;20033;-92
2024/02/16 08:15:07;;;;;;;24.13;21.50;;;;;;;;;;6101786;23;20014;-92
2024/02/16 08:17:34;;;;;;;25.38;20.35;;;;;;;;;;6102361;23;20002;-93
2024/02/16 08:20:00;;;;;;;20.98;18.77;;;;;;;;;;6101890;23;20014;-92
2024/02/16 08:22:26;;;;;;;21.48;18.98;;;;;;;;;;6101670;23;20505;-91
2024/02/16 08:24:52;;;;;;;23.38;20.98;;;;;;;;;;6101635;23;20017;-91
2024/02/16 08:27:19;;;;;;;22.42;20.02;;;;;;;;;;6101872;23;20069;-90
2024/02/16 08:29:45;;;;;;;23.52;21.17;;;;;;;;;;6103277;23;20344;-89
2024/02/16 08:32:11;;;;;;;22.77;18.40;;;;;;;;;;6100645;23;20005;-89
2024/02/16 08:34:38;;;;;;;20.50;17.83;;;;;;;;;;6101188;23;20013;-91
2024/02/16 08:37:04;;;;;;;22.02;19.15;;;;;;;;;;6127112;23;20058;-89
2024/02/16 08:39:31;;;;;;;22.60;19.50;;;;;;;;;;6101743;23;20006;-88
2024/02/16 08:41:58;;;;;;;24.00;20.55;;;;;;;;;;6102146;23;20006;-88
2024/02/16 08:44:24;;;;;;;24.50;20.95;;;;;;;;;;6101742;23;20053;-91
2024/02/16 08:46:50;;;;;;;23.33;19.73;;;;;;;;;;6101437;23;20014;-92
2024/02/16 08:49:16;;;;;;;24.05;20.98;;;;;;;;;;6102216;23;20033;-90
2024/02/16 08:51:43;;;;;;;23.38;20.88;;;;;;;;;;6101880;23;20002;-90
2024/02/16 08:54:11;;;;;;;23.60;20.73;;;;;;;;;;6101328;23;20148;-89
2024/02/16 08:56:39;;;;;;;28.95;22.63;;;;;;;;;;6102438;23;20006;-91
2024/02/16 08:59:05;;;;;;;24.02;20.45;;;;;;;;;;6103292;23;20005;-93
2024/02/16 09:01:32;;;;;;;24.08;21.02;;;;;;;;;;6102329;23;20089;-89
2024/02/16 09:03:58;;;;;;;26.67;23.48;;;;;;;;;;6102246;23;20002;-91
2024/02/16 09:06:24;;;;;;;25.05;22.35;;;;;;;;;;6103246;23;20006;-90
2024/02/16 09:08:50;;;;;;;28.98;24.20;;;;;;;;;;6103377;23;20016;-91
2024/02/16 09:11:17;;;;;;;25.80;22.65;;;;;;;;;;6103327;23;20017;-90
2024/02/16 09:13:43;;;;;;;27.02;24.13;;;;;;;;;;6115984;23;20001;-90
2024/02/16 09:16:09;;;;;;;26.30;22.67;;;;;;;;;;6129248;23;19998;-92
2024/02/16 09:18:37;;;;;;;26.63;22.98;;;;;;;;;;6114551;23;20080;-91
2024/02/16 09:21:03;;;;;;;28.45;21.83;;;;;;;;;;6102206;23;20010;-92
2024/02/16 09:23:30;;;;;;;23.52;20.88;;;;;;;;;;6102208;23;20006;-92
2024/02/16 09:29:00;;;;;;;22.63;19.35;;;;;;;;;;6128069;23;20013;-91
2024/02/16 09:31:26;;;;;;;25.40;21.17;;;;;;;;;;6104236;23;20057;-93
2024/02/16 09:33:53;;;;;;;25.10;20.50;;;;;;;;;;6103685;23;20029;-92
2024/02/16 09:36:19;;;;;;;24.27;20.55;;;;;;;;;;6104188;23;20060;-93
2024/02/16 09:38:45;;;;;;;27.10;24.30;;;;;;;;;;6103582;23;20104;-94
2024/02/16 09:41:11;;;;;;;25.35;21.52;;;;;;;;;;6103990;23;20013;-93
2024/02/16 09:43:39;;;;;;;25.52;21.58;;;;;;;;;;6103858;23;20002;-93
2024/02/16 09:46:05;;;;;;;24.90;21.77;;;;;;;;;;6103892;23;20057;-92
2024/02/16 09:48:32;;;;;;;25.15;22.40;;;;;;;;;;6103961;23;20014;-93
2024/02/16 09:51:01;;;;;;;25.70;22.95;;;;;;;;;;6104169;23;20017;-92
2024/02/16 09:53:29;;;;;;;24.60;21.95;;;;;;;;;;6104098;23;20012;-91
2024/02/16 09:55:55;;;;;;;21.75;19.10;;;;;;;;;;6103478;23;20021;-91
2024/02/16 09:58:22;;;;;;;22.85;20.40;;;;;;;;;;6103263;23;20081;-93
2024/02/16 10:00:48;;;;;;;24.35;21.80;;;;;;;;;;6103538;23;20461;-91
2024/02/16 10:03:24;;;;;;;23.83;21.13;;;;;;;;;;6103682;23;20030;-92
2024/02/16 10:05:52;;;;;;;23.85;20.50;;;;;;;;;;6103331;23;20475;-93
2024/02/16 10:08:19;;;;;;;25.50;22.83;;;;;;;;;;6104123;23;20006;-92
2024/02/16 10:10:45;;;;;;;21.00;18.77;;;;;;;;;;6103395;23;20018;-92
2024/02/16 10:13:11;;;;;;;21.95;19.65;;;;;;;;;;6103583;23;20775;-92
2024/02/16 10:15:37;;;;;;;23.23;20.70;;;;;;;;;;6103867;23;20045;-95
2024/02/16 10:18:07;;;;;;;20.15;16.00;;;;;;;;;;6103900;23;20006;-93
2024/02/16 10:20:34;;;;;;;26.05;20.95;;;;;;;;;;6129191;23;20009;-93
2024/02/16 10:23:08;;;;;;;21.35;18.98;;;;;;;;;;6103734;23;20017;-91
2024/02/16 10:25:35;;;;;;;22.17;19.83;;;;;;;;;;6103662;23;20014;-90
2024/02/16 10:28:04;;;;;;;27.33;24.10;;;;;;;;;;6103814;23;20414;-93
2024/02/16 10:30:31;;;;;;;28.25;25.42;;;;;;;;;;6104336;23;20002;-92
2024/02/16 10:33:01;;;;;;;22.65;19.88;;;;;;;;;;6103560;23;20006;-92
2024/02/16 10:35:28;;;;;;;26.63;21.80;;;;;;;;;;6103513;23;20022;-92
2024/02/16 10:37:56;;;;;;;23.63;21.33;;;;;;;;;;6104240;23;20360;-93
2024/02/16 10:40:23;;;;;;;23.58;17.85;;;;;;;;;;6104261;23;20006;-92
2024/02/16 10:42:52;;;;;;;22.65;19.85;;;;;;;;;;6103232;23;20030;-92
2024/02/16 10:45:19;;;;;;;22.40;19.83;;;;;;;;;;6102940;23;20010;-92
2024/02/16 10:47:45;;;;;;;18.50;16.50;;;;;;;;;;6103636;23;20447;-93
2024/02/16 10:50:12;;;;;;;20.98;18.75;;;;;;;;;;6104012;23;20006;-93
2024/02/16 10:52:42;;;;;;;21.58;19.38;;;;;;;;;;6104756;23;20002;-92
2024/02/16 10:55:08;;;;;;;24.42;20.27;;;;;;;;;;6104652;23;20024;-92
2024/02/16 10:57:40;;;;;;;22.15;19.80;;;;;;;;;;6108839;23;19986;-91
2024/02/16 11:00:10;;;;;;;23.80;21.55;;;;;;;;;;6130357;23;20012;-92
2024/02/16 11:02:56;;;;;;;20.50;17.15;;;;;;;;;;6122782;23;20305;-92
2024/02/16 11:05:34;;;;;;;19.42;16.85;;;;;;;;;;6103534;23;20029;-92
2024/02/16 11:08:01;;;;;;;23.05;19.80;;;;;;;;;;6103204;23;20029;-92
2024/02/16 11:10:28;;;;;;;21.92;18.05;;;;;;;;;;6103385;23;20010;-92
2024/02/16 11:12:59;;;;;;;17.70;15.15;;;;;;;;;;6102692;23;20014;-92
2024/02/16 11:15:29;;;;;;;19.23;16.77;;;;;;;;;;6103112;23;20065;-92
2024/02/16 11:17:58;;;;;;;21.73;15.88;;;;;;;;;;6103019;23;20056;-92
2024/02/16 11:20:28;;;;;;;22.00;19.88;;;;;;;;;;6104855;23;20010;-92
2024/02/16 11:22:54;;;;;;;17.30;13.35;;;;;;;;;;6102801;23;20085;-92
2024/02/16 11:25:31;;;;;;;16.17;14.45;;;;;;;;;;6103276;23;20176;-92
2024/02/16 11:27:57;;;;;;;17.05;14.30;;;;;;;;;;6103230;23;20002;-91
2024/02/16 11:30:23;;;;;;;17.80;16.05;;;;;;;;;;6103236;23;20412;-91
2024/02/16 11:32:49;;;;;;;21.58;18.10;;;;;;;;;;6102875;23;20002;-91
2024/02/16 11:35:16;;;;;;;19.30;15.35;;;;;;;;;;6102201;23;20045;-91
2024/02/16 11:37:43;;;;;;;18.20;16.10;;;;;;;;;;6102860;23;20022;-92
2024/02/16 11:40:12;;;;;;;19.65;16.23;;;;;;;;;;6103115;23;20010;-91
2024/02/16 11:42:38;;;;;;;18.10;16.00;;;;;;;;;;6102412;23;20002;-92
2024/02/16 11:45:06;;;;;;;20.23;18.10;;;;;;;;;;6105091;23;20016;-92
2024/02/16 11:47:32;;;;;;;20.67;15.90;;;;;;;;;;6103509;23;20009;-92
2024/02/16 11:50:11;;;;;;;20.38;14.55;;;;;;;;;;6102789;23;20049;-92
2024/02/16 11:52:41;;;;;;;21.60;18.17;;;;;;;;;;6104408;23;20006;-93
2024/02/16 11:55:15;;;;;;;24.35;21.83;;;;;;;;;;6102881;23;20085;-93
2024/02/16 11:57:41;;;;;;;25.50;23.08;;;;;;;;;;6102800;23;20009;-92
2024/02/16 12:00:10;;;;;;;28.67;26.10;;;;;;;;;;6102504;23;20042;-91
2024/02/16 12:02:37;;;;;;;36.17;32.85;;;;;;;;;;6102816;23;20094;-89
2024/02/16 12:05:03;;;;;;;28.55;25.88;;;;;;;;;;6102979;23;20017;-91
2024/02/16 12:07:29;;;;;;;24.20;21.80;;;;;;;;;;6102826;23;20002;-91
2024/02/16 12:09:59;;;;;;;31.58;28.77;;;;;;;;;;6102676;23;20058;-92
2024/02/16 12:12:25;;;;;;;31.70;28.73;;;;;;;;;;6101880;23;20018;-93
2024/02/16 12:14:53;;;;;;;31.73;28.85;;;;;;;;;;6102642;23;20014;-92
2024/02/16 12:17:19;;;;;;;25.38;19.30;;;;;;;;;;6102319;23;20417;-91
2024/02/16 12:22:48;;;;;;;40.20;36.20;;;;;;;;;;6156304;23;20351;-91
2024/02/16 12:25:14;;;;;;;45.40;40.35;;;;;;;;;;6131983;23;20021;-91
2024/02/16 12:27:40;;;;;;;39.00;34.83;;;;;;;;;;6131931;23;20049;-93
2024/02/16 12:30:06;;;;;;;29.02;25.63;;;;;;;;;;6131208;23;20012;-91
2024/02/16 12:32:32;;;;;;;33.58;30.70;;;;;;;;;;6131472;23;20006;-91
2024/02/16 12:34:58;;;;;;;25.55;22.98;;;;;;;;;;6131819;23;20041;-91
2024/02/16 12:37:25;;;;;;;25.33;22.65;;;;;;;;;;6132335;23;20009;-92
2024/02/16 12:39:51;;;;;;;21.20;17.33;;;;;;;;;;6132324;23;20002;-91
2024/02/16 12:42:17;;;;;;;26.77;24.17;;;;;;;;;;6134633;23;20005;-91
2024/02/16 12:44:43;;;;;;;24.52;22.00;;;;;;;;;;6158530;23;20016;-90
2024/02/16 12:47:09;;;;;;;25.20;22.38;;;;;;;;;;6155049;23;20055;-89
2024/02/16 12:49:35;;;;;;;21.67;19.45;;;;;;;;;;6131388;23;20008;-87
2024/02/16 12:52:01;;;;;;;23.48;19.95;;;;;;;;;;6130997;23;20362;-89
2024/02/16 12:54:27;;;;;;;24.77;21.52;;;;;;;;;;6130958;23;20024;-90
2024/02/16 12:56:54;;;;;;;22.88;20.48;;;;;;;;;;6131197;23;19997;-90
2024/02/16 12:59:20;;;;;;;19.25;17.23;;;;;;;;;;6131707;23;20048;-89
2024/02/16 13:01:47;;;;;;;18.40;14.93;;;;;;;;;;6130560;23;20021;-88
2024/02/16 13:04:20;;;;;;;19.88;17.95;;;;;;;;;;6130623;23;20364;-91
2024/02/16 13:06:46;;;;;;;19.25;15.27;;;;;;;;;;6132304;23;20016;-91
2024/02/16 13:09:12;;;;;;;17.52;15.43;;;;;;;;;;6131976;23;20008;-91
2024/02/16 13:11:41;;;;;;;15.88;14.27;;;;;;;;;;6132470;23;20001;-92
2024/02/16 13:14:08;;;;;;;17.33;14.10;;;;;;;;;;6132443;23;20010;-91
2024/02/16 13:16:34;;;;;;;23.70;21.48;;;;;;;;;;6131740;23;20394;-92
2024/02/16 13:19:00;;;;;;;23.88;21.75;;;;;;;;;;6131484;23;20057;-93
2024/02/16 13:21:26;;;;;;;26.73;24.55;;;;;;;;;;6131074;23;20024;-93
2024/02/16 13:23:53;;;;;;;18.92;17.00;;;;;;;;;;6131161;23;20077;-89
2024/02/16 13:26:19;;;;;;;25.05;22.80;;;;;;;;;;6130874;23;20064;-93
2024/02/16 13:28:45;;;;;;;23.85;21.58;;;;;;;;;;6130758;23;20064;-91
2024/02/16 13:31:11;;;;;;;31.10;28.10;;;;;;;;;;6131491;23;20314;-93
2024/02/16 13:33:38;;;;;;;25.25;23.02;;;;;;;;;;6130450;23;20032;-91
2024/02/16 13:36:05;;;;;;;24.08;21.90;;;;;;;;;;6131243;23;20052;-91
2024/02/16 13:38:31;;;;;;;44.08;40.97;;;;;;;;;;6131234;23;20001;-90
2024/02/16 13:40:57;;;;;;;29.63;26.90;;;;;;;;;;6130998;23;20009;-87
2024/02/16 13:43:23;;;;;;;19.00;17.17;;;;;;;;;;6130700;23;20002;-88
2024/02/16 13:45:50;;;;;;;29.00;26.60;;;;;;;;;;6156747;23;20084;-92
2024/02/16 13:48:17;;;;;;;37.70;34.88;;;;;;;;;;6130847;23;20419;-91
2024/02/16 13:50:49;;;;;;;27.88;25.52;;;;;;;;;;6131238;23;20424;-93
2024/02/16 13:53:16;;;;;;;35.57;32.77;;;;;;;;;;6131210;23;20013;-94
2024/02/16 13:55:46;;;;;;;23.55;21.65;;;;;;;;;;6130767;23;20018;-95
2024/02/16 13:58:12;;;;;;;31.90;29.20;;;;;;;;;;6131105;23;20029;-94
2024/02/16 14:00:39;;;;;;;31.48;28.90;;;;;;;;;;6131482;23;20005;-96
2024/02/16 14:03:08;;;;;;;27.83;25.58;;;;;;;;;;6131086;23;20006;-95
2024/02/16 14:05:35;;;;;;;33.05;30.42;;;;;;;;;;6131602;23;20020;-95
2024/02/16 14:08:01;;;;;;;38.00;35.17;;;;;;;;;;6131641;23;20006;-93
2024/02/16 14:10:28;;;;;;;27.95;25.70;;;;;;;;;;6131200;23;20013;-95
2024/02/16 14:12:54;;;;;;;28.13;25.67;;;;;;;;;;6131595;23;20169;-94
2024/02/16 14:15:20;;;;;;;30.33;27.58;;;;;;;;;;6132072;23;20383;-93
2024/02/16 14:17:46;;;;;;;35.42;32.40;;;;;;;;;;6133129;23;20432;-94
2024/02/16 14:20:12;;;;;;;32.95;30.35;;;;;;;;;;6134015;23;20451;-94
2024/02/16 14:22:38;;;;;;;23.27;21.05;;;;;;;;;;6133312;23;20017;-92
2024/02/16 14:25:05;;;;;;;28.77;26.45;;;;;;;;;;6133611;23;20041;-93
2024/02/16 14:27:31;;;;;;;28.30;26.13;;;;;;;;;;6135149;23;20458;-93
2024/02/16 14:29:57;;;;;;;39.83;36.70;;;;;;;;;;6159637;23;20009;-91
2024/02/16 14:32:24;;;;;;;30.00;27.45;;;;;;;;;;6143977;23;20005;-92
2024/02/16 14:34:50;;;;;;;29.83;27.25;;;;;;;;;;6159291;23;20040;-95
2024/02/16 14:37:16;;;;;;;23.23;20.95;;;;;;;;;;6132939;23;20006;-94